createdAt,value
2024-03-05T00:00:37.259Z,49.53
2024-03-05T00:03:30.939Z,49.64
2024-03-05T00:06:05.025Z,49.91
2024-03-05T00:08:38.885Z,49.90
2024-03-05T00:11:12.812Z,50.06
2024-03-05T00:13:47.020Z,49.80
2024-03-05T00:16:20.963Z,49.82
2024-03-05T00:18:55.593Z,50.13
2024-03-05T00:21:29.953Z,50.37
2024-03-05T00:24:03.817Z,50.20
2024-03-05T00:26:38.313Z,49.84
2024-03-05T00:29:11.795Z,49.77
2024-03-05T00:31:45.548Z,50.16
2024-03-05T00:34:19.183Z,50.16
2024-03-05T00:36:53.378Z,50.42
2024-03-05T00:39:27.636Z,50.38
2024-03-05T00:42:01.440Z,49.82
2024-03-05T00:44:35.293Z,50.23
2024-03-05T00:47:09.851Z,50.31
2024-03-05T00:49:44.333Z,50.54
2024-03-05T00:52:20.377Z,50.17
2024-03-05T00:55:06.001Z,50.50
2024-03-05T00:57:40.316Z,50.34
2024-03-05T01:00:22.588Z,50.53
2024-03-05T01:03:00.878Z,50.51
2024-03-05T01:05:35.072Z,50.50
2024-03-05T01:08:16.024Z,50.83
2024-03-05T01:10:50.289Z,50.78
2024-03-05T01:13:26.944Z,50.64
2024-03-05T01:16:00.984Z,50.46
2024-03-05T01:18:35.716Z,50.88
2024-03-05T01:21:10.996Z,50.76
2024-03-05T01:23:48.001Z,50.80
2024-03-05T01:26:26.384Z,50.85
2024-03-05T01:29:19.326Z,51.23
2024-03-05T01:31:58.271Z,51.36
2024-03-05T01:34:32.700Z,51.10
2024-03-05T01:37:06.612Z,51.54
2024-03-05T01:39:40.818Z,51.40
2024-03-05T01:42:15.380Z,51.69
2024-03-05T01:44:49.189Z,51.39
2024-03-05T01:47:23.564Z,51.56
2024-03-05T01:49:58.267Z,51.62
2024-03-05T01:52:32.616Z,51.86
2024-03-05T01:55:10.098Z,51.83
2024-03-05T01:57:43.829Z,52.06
2024-03-05T02:00:22.499Z,52.06
2024-03-05T02:02:57.119Z,52.06
2024-03-05T02:05:31.051Z,52.40
2024-03-05T02:08:05.766Z,52.84
2024-03-05T02:10:39.635Z,52.63
2024-03-05T02:13:15.480Z,52.90
2024-03-05T02:15:50.656Z,53.38
2024-03-05T02:18:24.233Z,53.06
2024-03-05T02:21:03.333Z,53.40
2024-03-05T02:23:36.901Z,53.30
2024-03-05T02:26:11.183Z,53.63
2024-03-05T02:28:45.324Z,53.64
2024-03-05T02:31:19.646Z,53.38
2024-03-05T02:33:55.060Z,53.93
2024-03-05T02:36:28.878Z,53.89
2024-03-05T02:39:02.556Z,53.89
2024-03-05T02:41:36.917Z,54.48
2024-03-05T02:44:10.620Z,54.39
2024-03-05T02:46:44.358Z,54.08
2024-03-05T02:49:18.383Z,54.43
2024-03-05T02:51:52.786Z,54.46
2024-03-05T02:54:27.047Z,54.64
2024-03-05T02:57:01.267Z,54.90
2024-03-05T02:59:34.816Z,54.71
2024-03-05T03:02:09.102Z,54.58
2024-03-05T03:04:43.491Z,54.62
2024-03-05T03:07:18.728Z,55.05
2024-03-05T03:09:52.669Z,55.08
2024-03-05T03:12:27.504Z,55.17
2024-03-05T03:15:01.031Z,54.98
2024-03-05T03:17:34.758Z,55.07
2024-03-05T03:20:11.398Z,55.02
2024-03-05T03:22:45.667Z,55.25
2024-03-05T03:25:20.015Z,55.44
2024-03-05T03:27:53.826Z,55.79
2024-03-05T03:30:28.569Z,55.55
2024-03-05T03:33:02.306Z,55.46
2024-03-05T03:35:36.530Z,55.42
2024-03-05T03:38:10.616Z,56.40
2024-03-05T03:40:45.874Z,55.98
2024-03-05T03:43:19.672Z,56.00
2024-03-05T03:45:53.821Z,55.70
2024-03-05T03:48:27.833Z,55.72
2024-03-05T03:51:01.801Z,55.97
2024-03-05T03:53:35.492Z,55.73
2024-03-05T03:56:10.859Z,56.04
2024-03-05T03:58:45.668Z,56.03
2024-03-05T04:01:20.777Z,55.68
2024-03-05T04:03:54.408Z,55.85
2024-03-05T04:06:30.212Z,55.07
2024-03-05T04:09:04.718Z,54.83
2024-03-05T04:11:39.062Z,54.18
2024-03-05T04:14:12.791Z,54.34
2024-03-05T04:16:46.766Z,54.08
2024-03-05T04:19:20.888Z,53.68
2024-03-05T04:21:59.619Z,53.55
2024-03-05T04:24:37.703Z,53.37
2024-03-05T04:27:13.670Z,52.95
2024-03-05T04:29:48.870Z,52.66
2024-03-05T04:32:22.521Z,52.36
2024-03-05T04:35:02.984Z,51.70
2024-03-05T04:37:37.270Z,51.18
2024-03-05T04:40:12.982Z,50.78
2024-03-05T04:42:46.732Z,50.39
2024-03-05T04:45:20.902Z,50.06
2024-03-05T04:47:54.913Z,49.47
2024-03-05T04:50:28.780Z,49.17
2024-03-05T04:53:02.472Z,48.62
2024-03-05T04:55:37.649Z,48.23
2024-03-05T04:58:11.726Z,47.76
2024-03-05T05:00:46.239Z,47.26
2024-03-05T05:03:19.950Z,46.67
2024-03-05T05:05:56.564Z,46.51
2024-03-05T05:08:31.758Z,46.01
2024-03-05T05:11:06.177Z,45.56
2024-03-05T05:13:40.350Z,45.37
2024-03-05T05:16:14.759Z,44.88
2024-03-05T05:18:48.332Z,44.09
2024-03-05T05:21:21.754Z,43.59
2024-03-05T05:23:55.508Z,43.12
2024-03-05T05:26:29.454Z,42.52
2024-03-05T05:29:03.387Z,42.30
2024-03-05T05:31:38.432Z,42.32
2024-03-05T05:34:14.908Z,41.51
2024-03-05T05:36:48.318Z,41.02
2024-03-05T05:39:26.092Z,40.32
2024-03-05T05:41:59.931Z,40.00
2024-03-05T05:44:34.148Z,39.74
2024-03-05T05:47:12.337Z,39.18
2024-03-05T05:49:46.360Z,37.51
2024-03-05T05:52:23.600Z,35.67
2024-03-05T05:54:58.375Z,33.19
2024-03-05T05:57:32.309Z,31.24
2024-03-05T06:00:10.184Z,29.30
2024-03-05T06:02:47.630Z,27.31
2024-03-05T06:05:21.864Z,25.53
2024-03-05T06:07:55.593Z,23.82
2024-03-05T06:10:31.140Z,22.29
2024-03-05T06:13:05.097Z,20.71
2024-03-05T06:15:40.430Z,19.75
2024-03-05T06:18:15.365Z,18.66
2024-03-05T06:20:49.919Z,17.79
2024-03-05T06:23:24.861Z,16.30
2024-03-05T06:25:58.682Z,15.75
2024-03-05T06:28:32.939Z,15.05
2024-03-05T06:31:07.773Z,14.68
2024-03-05T06:33:42.867Z,14.12
2024-03-05T06:36:17.304Z,13.50
2024-03-05T06:38:51.416Z,13.03
2024-03-05T06:41:26.804Z,12.89
2024-03-05T06:44:11.813Z,12.85
2024-03-05T06:46:45.674Z,12.57
2024-03-05T06:49:28.920Z,12.45
2024-03-05T06:52:17.108Z,11.79
2024-03-05T06:55:08.830Z,11.86
2024-03-05T06:57:44.149Z,11.81
2024-03-05T07:00:19.827Z,11.61
2024-03-05T07:02:54.473Z,11.39
2024-03-05T07:05:29.177Z,11.27
2024-03-05T07:08:03.924Z,11.03
2024-03-05T07:10:38.925Z,10.76
2024-03-05T07:13:13.481Z,10.90
2024-03-05T07:15:45.193Z,10.78
2024-03-05T07:18:19.025Z,10.64
2024-03-05T07:20:54.370Z,10.23
2024-03-05T07:23:30.577Z,10.16
2024-03-05T07:26:07.626Z,10.25
2024-03-05T07:28:43.087Z,10.21
2024-03-05T07:31:19.395Z,9.99
2024-03-05T07:33:54.219Z,10.15
2024-03-05T07:36:28.140Z,9.83
2024-03-05T07:39:08.289Z,9.59
2024-03-05T07:41:45.776Z,9.91
2024-03-05T07:44:19.799Z,9.86
2024-03-05T07:46:53.883Z,9.63
2024-03-05T07:49:28.551Z,9.60
2024-03-05T07:52:02.474Z,9.80
2024-03-05T07:54:36.461Z,9.98
2024-03-05T07:57:11.761Z,9.65
2024-03-05T07:59:45.703Z,9.87
2024-03-05T08:02:19.375Z,9.65
2024-03-05T08:04:53.173Z,9.95
2024-03-05T08:07:27.126Z,9.95
2024-03-05T08:10:01.374Z,10.12
2024-03-05T08:12:35.087Z,11.06
2024-03-05T08:15:13.904Z,11.84
2024-03-05T08:17:48.540Z,12.74
2024-03-05T08:20:25.947Z,13.74
2024-03-05T08:22:59.920Z,14.74
2024-03-05T08:25:33.930Z,15.58
2024-03-05T08:28:08.594Z,16.45
2024-03-05T08:30:44.141Z,17.03
2024-03-05T08:33:22.256Z,17.67
2024-03-05T08:35:56.032Z,18.36
2024-03-05T08:38:31.215Z,19.24
2024-03-05T08:41:05.268Z,19.87
2024-03-05T08:43:39.933Z,20.45
2024-03-05T08:46:14.044Z,20.87
2024-03-05T08:48:47.802Z,21.30
2024-03-05T08:51:21.639Z,21.73
2024-03-05T08:53:57.080Z,22.12
2024-03-05T08:56:31.394Z,22.48
2024-03-05T08:59:07.950Z,22.73
2024-03-05T09:01:41.860Z,23.03
2024-03-05T09:04:15.601Z,23.14
2024-03-05T09:06:48.964Z,23.40
2024-03-05T09:09:22.782Z,23.75
2024-03-05T09:11:57.178Z,24.09
2024-03-05T09:14:31.747Z,24.34
2024-03-05T09:17:06.607Z,24.47
2024-03-05T09:19:40.898Z,24.52
2024-03-05T09:22:16.947Z,24.76
2024-03-05T09:24:51.985Z,24.70
2024-03-05T09:27:26.673Z,24.99
2024-03-05T09:30:00.432Z,25.39
2024-03-05T09:32:35.307Z,25.65
2024-03-05T09:35:11.428Z,25.91
2024-03-05T09:37:47.282Z,25.96
2024-03-05T09:40:22.374Z,25.98
2024-03-05T09:42:56.535Z,26.10
2024-03-05T09:45:32.508Z,26.19
2024-03-05T09:48:07.561Z,26.41
2024-03-05T09:50:41.544Z,26.89
2024-03-05T09:53:15.492Z,27.04
2024-03-05T09:55:53.131Z,27.11
2024-03-05T09:58:37.854Z,27.30
2024-03-05T10:01:12.481Z,27.24
2024-03-05T10:03:47.251Z,27.39
2024-03-05T10:06:20.798Z,27.28
2024-03-05T10:08:55.653Z,27.36
2024-03-05T10:11:29.698Z,27.36
2024-03-05T10:14:09.555Z,27.37
2024-03-05T10:16:45.497Z,27.68
2024-03-05T10:19:21.768Z,27.69
2024-03-05T10:21:55.942Z,27.65
2024-03-05T10:24:36.408Z,27.65
2024-03-05T10:27:10.462Z,27.40
2024-03-05T10:29:44.189Z,27.43
2024-03-05T10:32:22.226Z,27.37
2024-03-05T10:34:55.941Z,27.76
2024-03-05T10:37:30.225Z,27.96
2024-03-05T10:40:10.301Z,28.21
2024-03-05T10:42:44.592Z,28.11
2024-03-05T10:45:18.598Z,28.06
2024-03-05T10:47:52.628Z,28.12
2024-03-05T10:50:27.103Z,27.95
2024-03-05T10:53:03.013Z,28.00
2024-03-05T10:55:39.800Z,28.02
2024-03-05T10:58:38.786Z,27.92
2024-03-05T11:01:14.889Z,27.87
2024-03-05T11:03:50.413Z,28.08
2024-03-05T11:06:25.940Z,28.18
2024-03-05T11:09:02.237Z,28.06
2024-03-05T11:11:36.118Z,27.86
2024-03-05T11:14:11.919Z,27.82
2024-03-05T11:16:47.676Z,27.82
2024-03-05T11:19:21.335Z,27.65
2024-03-05T11:21:55.983Z,27.98
2024-03-05T11:24:30.276Z,27.97
2024-03-05T11:27:13.712Z,27.98
2024-03-05T11:29:47.921Z,28.01
2024-03-05T11:32:30.088Z,27.92
2024-03-05T11:35:05.656Z,27.90
2024-03-05T11:37:52.136Z,27.99
2024-03-05T11:40:34.528Z,28.03
2024-03-05T11:43:08.903Z,27.75
2024-03-05T11:45:50.727Z,27.81
2024-03-05T11:48:25.705Z,27.72
2024-03-05T11:51:00.660Z,27.77
2024-03-05T11:53:35.002Z,27.54
2024-03-05T11:56:13.146Z,27.45
2024-03-05T11:58:47.490Z,27.52
2024-03-05T12:01:21.408Z,27.64
2024-03-05T12:04:05.299Z,27.65
2024-03-05T12:06:40.670Z,27.57
2024-03-05T12:09:20.299Z,27.61
2024-03-05T12:12:06.831Z,27.57
2024-03-05T12:14:41.641Z,27.69
2024-03-05T12:17:15.631Z,27.54
2024-03-05T12:19:51.008Z,27.31
2024-03-05T12:22:25.825Z,27.32
2024-03-05T12:24:59.805Z,27.21
2024-03-05T12:27:35.789Z,27.44
2024-03-05T12:30:12.323Z,27.29
2024-03-05T12:32:47.853Z,27.20
2024-03-05T12:35:23.744Z,27.14
2024-03-05T12:37:57.788Z,27.11
2024-03-05T12:40:33.633Z,27.49
2024-03-05T12:43:16.303Z,27.60
2024-03-05T12:45:51.027Z,27.82
2024-03-05T12:48:33.391Z,27.84
2024-03-05T12:51:08.248Z,27.80
2024-03-05T12:53:43.369Z,27.74
2024-03-05T12:56:17.859Z,28.06
2024-03-05T12:58:52.359Z,27.95
2024-03-05T13:01:26.781Z,27.90
2024-03-05T13:04:00.298Z,27.92
2024-03-05T13:06:34.304Z,27.98
2024-03-05T13:09:10.163Z,28.09
2024-03-05T13:11:43.892Z,28.04
2024-03-05T13:14:21.555Z,28.14
2024-03-05T13:16:56.959Z,28.21
2024-03-05T13:19:30.637Z,28.44
2024-03-05T13:22:04.157Z,28.50
2024-03-05T13:24:39.655Z,28.73
2024-03-05T13:27:13.996Z,28.70
2024-03-05T13:29:48.611Z,28.81
2024-03-05T13:32:23.483Z,29.02
2024-03-05T13:34:56.928Z,29.46
2024-03-05T13:37:30.573Z,29.48
2024-03-05T13:40:04.265Z,29.66
2024-03-05T13:42:38.383Z,29.98
2024-03-05T13:45:13.996Z,29.99
2024-03-05T13:47:48.180Z,30.10
2024-03-05T13:50:22.327Z,30.16
2024-03-05T13:52:57.229Z,30.36
2024-03-05T13:55:34.238Z,30.52
2024-03-05T13:58:08.513Z,30.43
2024-03-05T14:00:42.247Z,30.62
2024-03-05T14:03:17.509Z,30.76
2024-03-05T14:05:51.792Z,30.80
2024-03-05T14:08:25.502Z,30.97
2024-03-05T14:10:59.585Z,31.20
2024-03-05T14:13:35.340Z,31.50
2024-03-05T14:16:14.751Z,31.38
2024-03-05T14:18:50.189Z,31.55
2024-03-05T14:21:23.924Z,31.64
2024-03-05T14:23:58.204Z,31.81
2024-03-05T14:26:32.074Z,31.98
2024-03-05T14:29:06.344Z,32.11
2024-03-05T14:31:40.174Z,32.17
2024-03-05T14:34:14.915Z,32.38
2024-03-05T14:36:49.380Z,32.56
2024-03-05T14:39:23.861Z,32.70
2024-03-05T14:41:57.627Z,32.69
2024-03-05T14:44:31.200Z,32.99
2024-03-05T14:47:05.307Z,33.10
2024-03-05T14:49:39.352Z,33.31
2024-03-05T14:52:13.011Z,33.42
2024-03-05T14:54:46.609Z,33.56
2024-03-05T14:57:20.388Z,33.67
2024-03-05T14:59:54.212Z,33.67
2024-03-05T15:02:28.037Z,33.68
2024-03-05T15:05:01.486Z,33.96
2024-03-05T15:07:35.569Z,34.03
2024-03-05T15:10:13.936Z,34.02
2024-03-05T15:12:49.057Z,34.19
2024-03-05T15:15:25.416Z,34.49
2024-03-05T15:18:02.331Z,34.76
2024-03-05T15:20:37.057Z,34.85
2024-03-05T15:23:12.024Z,35.08
2024-03-05T15:25:47.106Z,35.21
2024-03-05T15:28:21.217Z,35.36
2024-03-05T15:30:55.254Z,35.55
2024-03-05T15:33:29.233Z,35.65
2024-03-05T15:36:03.295Z,35.78
2024-03-05T15:38:37.116Z,36.13
2024-03-05T15:41:11.568Z,36.11
2024-03-05T15:43:45.943Z,36.19
2024-03-05T15:46:19.816Z,36.26
2024-03-05T15:48:53.702Z,36.31
2024-03-05T15:51:28.121Z,36.64
2024-03-05T15:54:02.002Z,36.60
2024-03-05T15:56:47.018Z,36.86
2024-03-05T15:59:38.539Z,36.87
2024-03-05T16:02:12.687Z,37.16
2024-03-05T16:05:05.448Z,37.23
2024-03-05T16:07:40.751Z,37.33
2024-03-05T16:10:17.840Z,37.33
2024-03-05T16:12:51.588Z,37.48
2024-03-05T16:15:25.825Z,37.44
2024-03-05T16:18:01.165Z,37.58
2024-03-05T16:20:35.274Z,37.64
2024-03-05T16:23:09.422Z,37.70
2024-03-05T16:25:43.599Z,37.75
2024-03-05T16:28:18.957Z,37.95
2024-03-05T16:30:53.318Z,38.23
2024-03-05T16:33:27.978Z,38.13
2024-03-05T16:36:01.700Z,38.28
2024-03-05T16:38:37.537Z,38.19
2024-03-05T16:41:11.284Z,38.48
2024-03-05T16:43:45.010Z,38.58
2024-03-05T16:46:18.763Z,38.51
2024-03-05T16:48:52.887Z,38.43
2024-03-05T16:51:27.920Z,39.07
2024-03-05T16:54:01.563Z,38.82
2024-03-05T16:56:35.362Z,38.96
2024-03-05T16:59:09.297Z,39.09
2024-03-05T17:01:43.259Z,39.07
2024-03-05T17:04:22.444Z,39.14
2024-03-05T17:06:58.496Z,39.36
2024-03-05T17:09:32.032Z,39.53
2024-03-05T17:12:08.129Z,39.45
2024-03-05T17:14:45.622Z,39.28
2024-03-05T17:17:19.283Z,39.51
2024-03-05T17:19:57.162Z,39.82
2024-03-05T17:22:33.042Z,39.63
2024-03-05T17:25:10.106Z,39.72
2024-03-05T17:27:43.534Z,40.07
2024-03-05T17:30:20.077Z,39.99
2024-03-05T17:32:53.765Z,40.18
2024-03-05T17:35:28.626Z,40.37
2024-03-05T17:38:06.245Z,40.44
2024-03-05T17:40:40.152Z,40.52
2024-03-05T17:43:13.714Z,40.43
2024-03-05T17:45:47.646Z,40.53
2024-03-05T17:48:22.292Z,40.65
2024-03-05T17:50:55.963Z,40.65
2024-03-05T17:53:29.476Z,40.69
2024-03-05T17:56:05.782Z,41.19
2024-03-05T17:58:39.862Z,41.11
2024-03-05T18:01:15.890Z,41.13
2024-03-05T18:03:50.303Z,41.15
2024-03-05T18:06:24.657Z,41.29
2024-03-05T18:08:58.294Z,41.33
2024-03-05T18:11:33.139Z,41.62
2024-03-05T18:14:07.239Z,41.83
2024-03-05T18:16:41.661Z,41.93
2024-03-05T18:19:15.267Z,41.77
2024-03-05T18:21:49.614Z,41.88
2024-03-05T18:24:23.188Z,42.21
2024-03-05T18:26:56.642Z,42.08
2024-03-05T18:29:31.078Z,42.84
2024-03-05T18:32:05.941Z,42.64
2024-03-05T18:34:40.210Z,42.56
2024-03-05T18:37:13.649Z,42.79
2024-03-05T18:39:47.412Z,42.80
2024-03-05T18:42:22.417Z,42.89
2024-03-05T18:44:58.976Z,42.92
2024-03-05T18:47:33.380Z,42.92
2024-03-05T18:50:08.041Z,43.04
2024-03-05T18:52:42.419Z,43.22
2024-03-05T18:55:17.223Z,43.21
2024-03-05T18:57:51.147Z,43.15
2024-03-05T19:00:25.399Z,43.18
2024-03-05T19:02:59.076Z,43.48
2024-03-05T19:05:33.418Z,43.47
2024-03-05T19:08:07.927Z,43.56
2024-03-05T19:10:42.482Z,43.47
2024-03-05T19:13:17.398Z,43.57
2024-03-05T19:15:51.597Z,43.67
2024-03-05T19:18:25.606Z,43.65
2024-03-05T19:21:01.346Z,43.70
2024-03-05T19:23:34.870Z,43.75
2024-03-05T19:26:08.766Z,43.95
2024-03-05T19:28:42.674Z,44.11
2024-03-05T19:31:16.061Z,44.27
2024-03-05T19:33:49.472Z,44.06
2024-03-05T19:36:23.147Z,44.08
2024-03-05T19:38:58.935Z,44.13
2024-03-05T19:41:35.840Z,44.36
2024-03-05T19:44:10.384Z,44.32
2024-03-05T19:46:45.603Z,44.19
2024-03-05T19:49:19.058Z,44.21
2024-03-05T19:51:53.628Z,44.27
2024-03-05T19:54:29.562Z,44.40
2024-03-05T19:57:04.994Z,44.53
2024-03-05T19:59:39.422Z,44.86
2024-03-05T20:02:17.920Z,44.96
2024-03-05T20:04:52.243Z,44.96
2024-03-05T20:07:28.643Z,45.20
2024-03-05T20:10:08.477Z,45.37
2024-03-05T20:12:41.967Z,45.52
2024-03-05T20:15:16.280Z,45.29
2024-03-05T20:17:50.167Z,45.51
2024-03-05T20:20:31.411Z,45.75
2024-03-05T20:23:18.999Z,45.51
2024-03-05T20:25:57.735Z,45.60
2024-03-05T20:28:32.909Z,45.49
2024-03-05T20:31:09.484Z,45.75
2024-03-05T20:33:45.585Z,45.59
2024-03-05T20:36:25.541Z,45.71
2024-03-05T20:39:00.209Z,45.72
2024-03-05T20:41:35.404Z,45.74
2024-03-05T20:44:09.474Z,45.98
2024-03-05T20:46:43.117Z,45.92
2024-03-05T20:49:17.955Z,46.04
2024-03-05T20:51:52.145Z,46.38
2024-03-05T20:54:25.730Z,46.40
2024-03-05T20:57:01.303Z,46.27
2024-03-05T20:59:35.525Z,46.03
2024-03-05T21:02:11.724Z,45.77
2024-03-05T21:04:47.594Z,45.74
2024-03-05T21:07:22.672Z,45.68
2024-03-05T21:09:57.569Z,45.77
2024-03-05T21:12:32.430Z,45.68
2024-03-05T21:15:06.324Z,45.65
2024-03-05T21:17:40.469Z,45.57
2024-03-05T21:20:17.559Z,45.35
2024-03-05T21:22:52.111Z,45.56
2024-03-05T21:25:27.557Z,45.40
2024-03-05T21:28:01.132Z,45.35
2024-03-05T21:30:34.934Z,45.50
2024-03-05T21:33:08.943Z,45.57
2024-03-05T21:35:42.521Z,45.65
2024-03-05T21:38:16.419Z,45.47
2024-03-05T21:40:50.374Z,45.43
2024-03-05T21:43:24.375Z,45.47
2024-03-05T21:45:58.414Z,45.45
2024-03-05T21:48:32.262Z,45.42
2024-03-05T21:51:10.222Z,45.24
2024-03-05T21:53:49.477Z,45.35
2024-03-05T21:56:23.489Z,45.31
2024-03-05T21:58:57.851Z,45.42
2024-03-05T22:01:31.475Z,45.24
2024-03-05T22:04:05.524Z,45.10
2024-03-05T22:06:39.300Z,45.26
2024-03-05T22:09:13.263Z,45.52
2024-03-05T22:11:48.467Z,45.15
2024-03-05T22:14:22.379Z,45.28
2024-03-05T22:16:56.213Z,45.21
2024-03-05T22:19:30.027Z,45.18
2024-03-05T22:22:04.218Z,45.22
2024-03-05T22:24:37.606Z,45.37
2024-03-05T22:27:11.236Z,45.28
2024-03-05T22:29:55.128Z,45.29
2024-03-05T22:32:29.959Z,45.33
2024-03-05T22:35:05.176Z,45.46
2024-03-05T22:37:40.553Z,45.60
2024-03-05T22:40:15.529Z,45.81
2024-03-05T22:42:49.814Z,45.82
2024-03-05T22:45:23.949Z,45.99
2024-03-05T22:47:58.347Z,46.02
2024-03-05T22:50:32.482Z,45.83
2024-03-05T22:53:06.414Z,45.63
2024-03-05T22:55:41.023Z,45.80
2024-03-05T22:58:15.185Z,45.77
2024-03-05T23:00:52.006Z,45.99
2024-03-05T23:03:26.309Z,46.03
2024-03-05T23:06:04.944Z,46.35
2024-03-05T23:08:42.484Z,46.33
2024-03-05T23:11:16.494Z,46.57
2024-03-05T23:13:50.523Z,46.57
2024-03-05T23:16:24.285Z,46.62
2024-03-05T23:18:58.149Z,46.74
2024-03-05T23:21:32.733Z,46.99
2024-03-05T23:24:07.409Z,46.78
2024-03-05T23:26:41.241Z,46.76
2024-03-05T23:29:15.309Z,47.02
2024-03-05T23:31:49.338Z,47.12
2024-03-05T23:34:23.056Z,47.23
2024-03-05T23:36:57.218Z,47.32
2024-03-05T23:39:31.261Z,47.31
2024-03-05T23:42:06.170Z,47.51
2024-03-05T23:44:42.146Z,47.69
2024-03-05T23:47:16.072Z,47.78
2024-03-05T23:49:50.395Z,47.94
2024-03-05T23:52:24.872Z,47.96
2024-03-05T23:55:02.221Z,48.05
2024-03-05T23:57:36.823Z,48.15
